sensor_id;sensor_type;location;lat;lon;timestamp;P1;durP1;ratioP1;P2;durP2;ratioP2
36931;SDS011;22847;42.654;23.370;2023-07-31T00:01:31;5.65;;;3.28;;
36931;SDS011;22847;42.654;23.370;2023-07-31T00:03:57;4.10;;;3.22;;
36931;SDS011;22847;42.654;23.370;2023-07-31T00:06:22;4.18;;;3.20;;
36931;SDS011;22847;42.654;23.370;2023-07-31T00:08:47;4.38;;;3.40;;
36931;SDS011;22847;42.654;23.370;2023-07-31T00:11:13;4.75;;;3.20;;
36931;SDS011;22847;42.654;23.370;2023-07-31T00:13:38;5.05;;;3.33;;
36931;SDS011;22847;42.654;23.370;2023-07-31T00:16:04;5.18;;;3.20;;
36931;SDS011;22847;42.654;23.370;2023-07-31T00:18:29;3.90;;;2.92;;
36931;SDS011;22847;42.654;23.370;2023-07-31T00:20:54;4.53;;;3.30;;
36931;SDS011;22847;42.654;23.370;2023-07-31T00:23:20;3.22;;;2.90;;
36931;SDS011;22847;42.654;23.370;2023-07-31T00:25:45;3.05;;;2.78;;
36931;SDS011;22847;42.654;23.370;2023-07-31T00:28:10;4.72;;;3.13;;
36931;SDS011;22847;42.654;23.370;2023-07-31T00:30:36;3.60;;;2.80;;
36931;SDS011;22847;42.654;23.370;2023-07-31T00:33:01;3.88;;;2.85;;
36931;SDS011;22847;42.654;23.370;2023-07-31T00:35:27;5.13;;;3.28;;
36931;SDS011;22847;42.654;23.370;2023-07-31T00:37:52;3.63;;;3.00;;
36931;SDS011;22847;42.654;23.370;2023-07-31T00:40:17;9.15;;;3.58;;
36931;SDS011;22847;42.654;23.370;2023-07-31T00:42:43;4.28;;;3.35;;
36931;SDS011;22847;42.654;23.370;2023-07-31T00:45:08;6.63;;;3.60;;
36931;SDS011;22847;42.654;23.370;2023-07-31T00:47:34;4.15;;;3.67;;
36931;SDS011;22847;42.654;23.370;2023-07-31T00:49:59;4.63;;;4.00;;
36931;SDS011;22847;42.654;23.370;2023-07-31T00:52:25;4.65;;;3.70;;
36931;SDS011;22847;42.654;23.370;2023-07-31T00:54:50;4.20;;;3.80;;
36931;SDS011;22847;42.654;23.370;2023-07-31T00:57:16;10.60;;;3.65;;
36931;SDS011;22847;42.654;23.370;2023-07-31T00:59:41;6.93;;;5.10;;
36931;SDS011;22847;42.654;23.370;2023-07-31T01:02:07;7.35;;;5.18;;
36931;SDS011;22847;42.654;23.370;2023-07-31T01:04:33;7.32;;;5.43;;
36931;SDS011;22847;42.654;23.370;2023-07-31T01:07:08;8.32;;;5.70;;
36931;SDS011;22847;42.654;23.370;2023-07-31T01:12:13;7.28;;;6.18;;
36931;SDS011;22847;42.654;23.370;2023-07-31T01:14:50;6.78;;;5.75;;
36931;SDS011;22847;42.654;23.370;2023-07-31T01:17:16;7.30;;;6.53;;
36931;SDS011;22847;42.654;23.370;2023-07-31T01:19:42;9.57;;;6.63;;
36931;SDS011;22847;42.654;23.370;2023-07-31T01:28:01;12.55;;;7.80;;
36931;SDS011;22847;42.654;23.370;2023-07-31T01:30:32;9.38;;;8.38;;
36931;SDS011;22847;42.654;23.370;2023-07-31T01:33:00;9.48;;;8.20;;
36931;SDS011;22847;42.654;23.370;2023-07-31T01:35:32;11.88;;;9.13;;
36931;SDS011;22847;42.654;23.370;2023-07-31T01:38:01;11.80;;;10.48;;
36931;SDS011;22847;42.654;23.370;2023-07-31T01:40:26;14.32;;;12.02;;
36931;SDS011;22847;42.654;23.370;2023-07-31T01:42:52;15.10;;;13.20;;
36931;SDS011;22847;42.654;23.370;2023-07-31T01:45:17;15.18;;;13.02;;
36931;SDS011;22847;42.654;23.370;2023-07-31T01:47:43;15.35;;;13.70;;
36931;SDS011;22847;42.654;23.370;2023-07-31T01:50:08;16.60;;;14.88;;
36931;SDS011;22847;42.654;23.370;2023-07-31T01:52:34;19.05;;;16.95;;
36931;SDS011;22847;42.654;23.370;2023-07-31T01:54:59;20.83;;;17.50;;
36931;SDS011;22847;42.654;23.370;2023-07-31T01:57:25;22.95;;;18.85;;
36931;SDS011;22847;42.654;23.370;2023-07-31T01:59:50;22.50;;;19.70;;
36931;SDS011;22847;42.654;23.370;2023-07-31T02:02:18;23.75;;;20.58;;
36931;SDS011;22847;42.654;23.370;2023-07-31T02:04:44;22.98;;;18.92;;
36931;SDS011;22847;42.654;23.370;2023-07-31T02:07:09;24.65;;;20.48;;
36931;SDS011;22847;42.654;23.370;2023-07-31T02:09:35;24.08;;;20.48;;
36931;SDS011;22847;42.654;23.370;2023-07-31T02:12:00;22.35;;;19.00;;
36931;SDS011;22847;42.654;23.370;2023-07-31T02:14:26;23.13;;;20.23;;
36931;SDS011;22847;42.654;23.370;2023-07-31T02:16:51;25.13;;;20.75;;
36931;SDS011;22847;42.654;23.370;2023-07-31T02:19:16;24.27;;;20.73;;
36931;SDS011;22847;42.654;23.370;2023-07-31T02:21:42;26.70;;;21.27;;
36931;SDS011;22847;42.654;23.370;2023-07-31T02:24:07;27.17;;;21.60;;
36931;SDS011;22847;42.654;23.370;2023-07-31T02:26:33;25.77;;;20.85;;
36931;SDS011;22847;42.654;23.370;2023-07-31T02:28:58;24.77;;;21.80;;
36931;SDS011;22847;42.654;23.370;2023-07-31T02:31:23;25.35;;;21.08;;
36931;SDS011;22847;42.654;23.370;2023-07-31T02:33:49;26.70;;;21.80;;
36931;SDS011;22847;42.654;23.370;2023-07-31T02:36:14;25.08;;;21.70;;
36931;SDS011;22847;42.654;23.370;2023-07-31T02:38:40;24.55;;;21.15;;
36931;SDS011;22847;42.654;23.370;2023-07-31T02:41:05;26.60;;;21.65;;
36931;SDS011;22847;42.654;23.370;2023-07-31T02:43:31;24.63;;;20.83;;
36931;SDS011;22847;42.654;23.370;2023-07-31T02:45:56;27.15;;;20.42;;
36931;SDS011;22847;42.654;23.370;2023-07-31T02:48:22;23.55;;;18.63;;
36931;SDS011;22847;42.654;23.370;2023-07-31T02:50:47;23.52;;;20.65;;
36931;SDS011;22847;42.654;23.370;2023-07-31T02:53:13;24.77;;;21.00;;
36931;SDS011;22847;42.654;23.370;2023-07-31T02:55:39;24.23;;;21.23;;
36931;SDS011;22847;42.654;23.370;2023-07-31T02:58:04;26.08;;;21.40;;
36931;SDS011;22847;42.654;23.370;2023-07-31T03:00:30;23.73;;;21.05;;
36931;SDS011;22847;42.654;23.370;2023-07-31T03:02:55;25.88;;;21.67;;
36931;SDS011;22847;42.654;23.370;2023-07-31T03:05:20;24.88;;;22.00;;
36931;SDS011;22847;42.654;23.370;2023-07-31T03:07:46;25.17;;;22.40;;
36931;SDS011;22847;42.654;23.370;2023-07-31T03:10:11;23.90;;;21.23;;
36931;SDS011;22847;42.654;23.370;2023-07-31T03:12:39;26.35;;;22.35;;
36931;SDS011;22847;42.654;23.370;2023-07-31T03:15:05;24.27;;;20.77;;
36931;SDS011;22847;42.654;23.370;2023-07-31T03:17:31;27.20;;;22.38;;
36931;SDS011;22847;42.654;23.370;2023-07-31T03:19:56;28.58;;;22.08;;
36931;SDS011;22847;42.654;23.370;2023-07-31T03:22:21;27.65;;;22.08;;
36931;SDS011;22847;42.654;23.370;2023-07-31T03:24:47;27.60;;;22.70;;
36931;SDS011;22847;42.654;23.370;2023-07-31T03:27:12;25.38;;;22.13;;
36931;SDS011;22847;42.654;23.370;2023-07-31T03:29:38;28.48;;;21.70;;
36931;SDS011;22847;42.654;23.370;2023-07-31T03:32:03;27.02;;;20.90;;
36931;SDS011;22847;42.654;23.370;2023-07-31T03:34:29;27.50;;;22.67;;
36931;SDS011;22847;42.654;23.370;2023-07-31T03:36:56;30.08;;;22.63;;
36931;SDS011;22847;42.654;23.370;2023-07-31T03:39:22;27.38;;;22.13;;
36931;SDS011;22847;42.654;23.370;2023-07-31T03:41:48;26.98;;;21.17;;
36931;SDS011;22847;42.654;23.370;2023-07-31T03:44:13;25.90;;;22.65;;
36931;SDS011;22847;42.654;23.370;2023-07-31T03:46:39;28.13;;;23.20;;
36931;SDS011;22847;42.654;23.370;2023-07-31T03:49:04;28.67;;;22.45;;
36931;SDS011;22847;42.654;23.370;2023-07-31T03:51:29;29.15;;;21.98;;
36931;SDS011;22847;42.654;23.370;2023-07-31T03:53:55;29.00;;;23.17;;
36931;SDS011;22847;42.654;23.370;2023-07-31T03:56:20;30.88;;;24.50;;
36931;SDS011;22847;42.654;23.370;2023-07-31T03:58:46;28.10;;;23.63;;
36931;SDS011;22847;42.654;23.370;2023-07-31T04:01:11;33.60;;;24.10;;
36931;SDS011;22847;42.654;23.370;2023-07-31T04:03:36;28.60;;;23.80;;
36931;SDS011;22847;42.654;23.370;2023-07-31T04:06:02;34.65;;;24.15;;
36931;SDS011;22847;42.654;23.370;2023-07-31T04:08:28;32.28;;;23.98;;
36931;SDS011;22847;42.654;23.370;2023-07-31T04:10:53;40.50;;;26.48;;
36931;SDS011;22847;42.654;23.370;2023-07-31T04:13:19;32.50;;;26.40;;
36931;SDS011;22847;42.654;23.370;2023-07-31T04:15:50;32.83;;;24.95;;
36931;SDS011;22847;42.654;23.370;2023-07-31T04:18:16;33.70;;;25.00;;
36931;SDS011;22847;42.654;23.370;2023-07-31T04:20:42;37.83;;;25.52;;
36931;SDS011;22847;42.654;23.370;2023-07-31T04:23:07;32.97;;;24.58;;
36931;SDS011;22847;42.654;23.370;2023-07-31T04:25:32;33.53;;;25.73;;
36931;SDS011;22847;42.654;23.370;2023-07-31T04:27:59;31.77;;;24.98;;
36931;SDS011;22847;42.654;23.370;2023-07-31T04:30:25;38.90;;;25.25;;
36931;SDS011;22847;42.654;23.370;2023-07-31T04:32:50;31.45;;;25.60;;
36931;SDS011;22847;42.654;23.370;2023-07-31T04:35:16;34.33;;;24.73;;
36931;SDS011;22847;42.654;23.370;2023-07-31T04:37:41;33.53;;;24.63;;
36931;SDS011;22847;42.654;23.370;2023-07-31T04:40:07;31.52;;;24.27;;
36931;SDS011;22847;42.654;23.370;2023-07-31T04:42:33;32.92;;;24.33;;
36931;SDS011;22847;42.654;23.370;2023-07-31T04:44:59;33.95;;;25.00;;
36931;SDS011;22847;42.654;23.370;2023-07-31T04:47:25;32.00;;;24.20;;
36931;SDS011;22847;42.654;23.370;2023-07-31T04:49:50;29.98;;;24.15;;
36931;SDS011;22847;42.654;23.370;2023-07-31T04:52:15;34.30;;;25.45;;
36931;SDS011;22847;42.654;23.370;2023-07-31T04:54:41;30.88;;;25.10;;
36931;SDS011;22847;42.654;23.370;2023-07-31T04:57:06;31.48;;;24.70;;
36931;SDS011;22847;42.654;23.370;2023-07-31T04:59:32;33.67;;;24.52;;
36931;SDS011;22847;42.654;23.370;2023-07-31T05:01:57;30.10;;;24.02;;
36931;SDS011;22847;42.654;23.370;2023-07-31T05:04:22;32.17;;;23.45;;
36931;SDS011;22847;42.654;23.370;2023-07-31T05:06:48;32.28;;;22.63;;
36931;SDS011;22847;42.654;23.370;2023-07-31T05:09:13;30.83;;;23.58;;
36931;SDS011;22847;42.654;23.370;2023-07-31T05:11:39;30.83;;;22.88;;
36931;SDS011;22847;42.654;23.370;2023-07-31T05:14:05;27.05;;;21.65;;
36931;SDS011;22847;42.654;23.370;2023-07-31T05:16:31;31.45;;;22.73;;
36931;SDS011;22847;42.654;23.370;2023-07-31T05:18:56;28.40;;;21.98;;
36931;SDS011;22847;42.654;23.370;2023-07-31T05:21:22;24.77;;;20.88;;
36931;SDS011;22847;42.654;23.370;2023-07-31T05:23:47;29.55;;;21.85;;
36931;SDS011;22847;42.654;23.370;2023-07-31T05:26:13;21.95;;;19.35;;
36931;SDS011;22847;42.654;23.370;2023-07-31T05:28:38;25.15;;;19.23;;
36931;SDS011;22847;42.654;23.370;2023-07-31T05:31:04;20.65;;;17.35;;
36931;SDS011;22847;42.654;23.370;2023-07-31T05:33:30;21.42;;;17.23;;
36931;SDS011;22847;42.654;23.370;2023-07-31T05:35:56;19.98;;;15.85;;
36931;SDS011;22847;42.654;23.370;2023-07-31T05:38:21;21.45;;;16.58;;
36931;SDS011;22847;42.654;23.370;2023-07-31T05:40:47;20.20;;;16.27;;
36931;SDS011;22847;42.654;23.370;2023-07-31T05:43:13;21.50;;;17.67;;
36931;SDS011;22847;42.654;23.370;2023-07-31T05:45:38;16.55;;;14.65;;
36931;SDS011;22847;42.654;23.370;2023-07-31T05:48:05;17.17;;;14.55;;
36931;SDS011;22847;42.654;23.370;2023-07-31T05:50:31;14.20;;;12.52;;
36931;SDS011;22847;42.654;23.370;2023-07-31T05:52:57;13.82;;;12.13;;
36931;SDS011;22847;42.654;23.370;2023-07-31T05:55:22;14.73;;;11.98;;
36931;SDS011;22847;42.654;23.370;2023-07-31T05:57:48;13.52;;;12.13;;
36931;SDS011;22847;42.654;23.370;2023-07-31T06:00:14;13.18;;;11.50;;
36931;SDS011;22847;42.654;23.370;2023-07-31T06:02:39;13.25;;;11.07;;
36931;SDS011;22847;42.654;23.370;2023-07-31T06:05:05;11.27;;;10.07;;
36931;SDS011;22847;42.654;23.370;2023-07-31T06:07:31;10.98;;;9.70;;
36931;SDS011;22847;42.654;23.370;2023-07-31T06:09:57;10.65;;;9.60;;
36931;SDS011;22847;42.654;23.370;2023-07-31T06:12:28;13.35;;;9.55;;
36931;SDS011;22847;42.654;23.370;2023-07-31T06:14:53;14.80;;;9.00;;
36931;SDS011;22847;42.654;23.370;2023-07-31T06:17:19;10.88;;;9.32;;
36931;SDS011;22847;42.654;23.370;2023-07-31T06:19:44;11.32;;;8.40;;
36931;SDS011;22847;42.654;23.370;2023-07-31T06:22:10;8.60;;;7.70;;
36931;SDS011;22847;42.654;23.370;2023-07-31T06:24:35;9.55;;;6.55;;
36931;SDS011;22847;42.654;23.370;2023-07-31T06:27:00;10.07;;;6.82;;
36931;SDS011;22847;42.654;23.370;2023-07-31T06:29:28;7.07;;;5.65;;
36931;SDS011;22847;42.654;23.370;2023-07-31T06:31:55;8.65;;;6.43;;
36931;SDS011;22847;42.654;23.370;2023-07-31T06:34:20;7.95;;;4.68;;
36931;SDS011;22847;42.654;23.370;2023-07-31T06:36:45;6.78;;;5.20;;
36931;SDS011;22847;42.654;23.370;2023-07-31T06:39:11;5.97;;;4.60;;
36931;SDS011;22847;42.654;23.370;2023-07-31T06:41:37;7.03;;;4.70;;
36931;SDS011;22847;42.654;23.370;2023-07-31T06:44:03;5.65;;;4.20;;
36931;SDS011;22847;42.654;23.370;2023-07-31T06:46:28;6.57;;;5.80;;
36931;SDS011;22847;42.654;23.370;2023-07-31T06:48:54;7.03;;;5.85;;
36931;SDS011;22847;42.654;23.370;2023-07-31T06:51:20;6.72;;;4.97;;
36931;SDS011;22847;42.654;23.370;2023-07-31T06:53:45;8.18;;;5.97;;
36931;SDS011;22847;42.654;23.370;2023-07-31T06:56:11;9.15;;;5.70;;
36931;SDS011;22847;42.654;23.370;2023-07-31T06:58:36;5.43;;;4.57;;
36931;SDS011;22847;42.654;23.370;2023-07-31T07:01:02;6.63;;;5.10;;
36931;SDS011;22847;42.654;23.370;2023-07-31T07:03:27;5.53;;;4.40;;
36931;SDS011;22847;42.654;23.370;2023-07-31T07:05:52;8.48;;;4.65;;
36931;SDS011;22847;42.654;23.370;2023-07-31T07:08:18;9.27;;;4.55;;
36931;SDS011;22847;42.654;23.370;2023-07-31T07:10:43;5.78;;;4.10;;
36931;SDS011;22847;42.654;23.370;2023-07-31T07:13:09;6.10;;;3.88;;
36931;SDS011;22847;42.654;23.370;2023-07-31T07:15:34;6.15;;;4.93;;
36931;SDS011;22847;42.654;23.370;2023-07-31T07:18:00;5.07;;;4.15;;
36931;SDS011;22847;42.654;23.370;2023-07-31T07:20:25;14.23;;;10.65;;
36931;SDS011;22847;42.654;23.370;2023-07-31T07:22:51;4.60;;;3.95;;
36931;SDS011;22847;42.654;23.370;2023-07-31T07:25:16;6.22;;;3.78;;
36931;SDS011;22847;42.654;23.370;2023-07-31T07:27:42;4.20;;;3.80;;
36931;SDS011;22847;42.654;23.370;2023-07-31T07:30:07;4.25;;;3.63;;
36931;SDS011;22847;42.654;23.370;2023-07-31T07:32:33;7.15;;;3.50;;
36931;SDS011;22847;42.654;23.370;2023-07-31T07:34:59;5.28;;;2.97;;
36931;SDS011;22847;42.654;23.370;2023-07-31T07:37:24;4.38;;;3.30;;
36931;SDS011;22847;42.654;23.370;2023-07-31T07:39:50;4.57;;;3.67;;
36931;SDS011;22847;42.654;23.370;2023-07-31T07:42:15;6.90;;;4.18;;
36931;SDS011;22847;42.654;23.370;2023-07-31T07:44:41;11.88;;;4.30;;
36931;SDS011;22847;42.654;23.370;2023-07-31T07:47:06;5.88;;;3.67;;
36931;SDS011;22847;42.654;23.370;2023-07-31T07:49:32;6.13;;;3.47;;
36931;SDS011;22847;42.654;23.370;2023-07-31T07:51:59;5.22;;;3.60;;
36931;SDS011;22847;42.654;23.370;2023-07-31T07:54:25;4.80;;;3.70;;
36931;SDS011;22847;42.654;23.370;2023-07-31T07:56:50;6.50;;;3.97;;
36931;SDS011;22847;42.654;23.370;2023-07-31T07:59:16;5.22;;;3.38;;
36931;SDS011;22847;42.654;23.370;2023-07-31T08:01:41;4.55;;;3.25;;
36931;SDS011;22847;42.654;23.370;2023-07-31T08:04:06;6.22;;;3.33;;
36931;SDS011;22847;42.654;23.370;2023-07-31T08:06:32;6.40;;;3.20;;
36931;SDS011;22847;42.654;23.370;2023-07-31T08:08:57;5.50;;;2.78;;
36931;SDS011;22847;42.654;23.370;2023-07-31T08:11:24;5.88;;;2.85;;
36931;SDS011;22847;42.654;23.370;2023-07-31T08:13:50;5.20;;;3.05;;
36931;SDS011;22847;42.654;23.370;2023-07-31T08:16:15;4.15;;;3.10;;
36931;SDS011;22847;42.654;23.370;2023-07-31T08:18:41;7.18;;;4.00;;
36931;SDS011;22847;42.654;23.370;2023-07-31T08:21:07;6.05;;;3.35;;
36931;SDS011;22847;42.654;23.370;2023-07-31T08:23:33;4.15;;;3.13;;
36931;SDS011;22847;42.654;23.370;2023-07-31T08:25:58;3.92;;;3.03;;
36931;SDS011;22847;42.654;23.370;2023-07-31T08:28:24;3.97;;;3.38;;
36931;SDS011;22847;42.654;23.370;2023-07-31T08:30:50;5.07;;;3.30;;
36931;SDS011;22847;42.654;23.370;2023-07-31T08:33:15;3.83;;;3.20;;
36931;SDS011;22847;42.654;23.370;2023-07-31T08:35:41;7.00;;;3.72;;
36931;SDS011;22847;42.654;23.370;2023-07-31T08:38:06;4.20;;;3.47;;
36931;SDS011;22847;42.654;23.370;2023-07-31T08:40:32;6.30;;;2.78;;
36931;SDS011;22847;42.654;23.370;2023-07-31T08:43:02;4.60;;;3.25;;
36931;SDS011;22847;42.654;23.370;2023-07-31T08:45:28;3.95;;;2.85;;
36931;SDS011;22847;42.654;23.370;2023-07-31T08:47:54;5.57;;;2.92;;
36931;SDS011;22847;42.654;23.370;2023-07-31T08:50:22;3.70;;;3.28;;
36931;SDS011;22847;42.654;23.370;2023-07-31T08:52:48;3.72;;;3.05;;
36931;SDS011;22847;42.654;23.370;2023-07-31T08:55:14;8.75;;;3.13;;
36931;SDS011;22847;42.654;23.370;2023-07-31T08:57:40;6.45;;;3.20;;
36931;SDS011;22847;42.654;23.370;2023-07-31T09:00:07;4.88;;;3.30;;
36931;SDS011;22847;42.654;23.370;2023-07-31T09:05:18;4.40;;;3.05;;
36931;SDS011;22847;42.654;23.370;2023-07-31T09:07:45;4.10;;;3.05;;
36931;SDS011;22847;42.654;23.370;2023-07-31T09:10:12;14.30;;;3.17;;
36931;SDS011;22847;42.654;23.370;2023-07-31T09:12:38;6.40;;;2.85;;
36931;SDS011;22847;42.654;23.370;2023-07-31T09:15:04;4.97;;;3.25;;
36931;SDS011;22847;42.654;23.370;2023-07-31T09:17:31;5.68;;;3.40;;
36931;SDS011;22847;42.654;23.370;2023-07-31T09:19:57;8.00;;;3.28;;
36931;SDS011;22847;42.654;23.370;2023-07-31T09:22:34;4.18;;;2.88;;
36931;SDS011;22847;42.654;23.370;2023-07-31T09:25:19;3.03;;;2.72;;
36931;SDS011;22847;42.654;23.370;2023-07-31T09:27:50;3.25;;;2.63;;
36931;SDS011;22847;42.654;23.370;2023-07-31T09:30:26;5.18;;;3.10;;
36931;SDS011;22847;42.654;23.370;2023-07-31T09:32:59;5.00;;;3.10;;
36931;SDS011;22847;42.654;23.370;2023-07-31T09:35:32;3.78;;;2.92;;
36931;SDS011;22847;42.654;23.370;2023-07-31T09:37:59;4.35;;;3.10;;
36931;SDS011;22847;42.654;23.370;2023-07-31T09:40:32;5.50;;;2.90;;
36931;SDS011;22847;42.654;23.370;2023-07-31T09:43:05;5.05;;;3.22;;
36931;SDS011;22847;42.654;23.370;2023-07-31T09:48:12;4.35;;;3.13;;
36931;SDS011;22847;42.654;23.370;2023-07-31T09:50:41;7.63;;;3.40;;
36931;SDS011;22847;42.654;23.370;2023-07-31T09:53:08;5.05;;;3.30;;
36931;SDS011;22847;42.654;23.370;2023-07-31T09:55:34;3.97;;;3.45;;
36931;SDS011;22847;42.654;23.370;2023-07-31T09:58:05;3.75;;;3.38;;
36931;SDS011;22847;42.654;23.370;2023-07-31T10:00:32;6.55;;;3.38;;
36931;SDS011;22847;42.654;23.370;2023-07-31T10:02:58;5.10;;;3.60;;
36931;SDS011;22847;42.654;23.370;2023-07-31T10:05:27;4.07;;;3.10;;
36931;SDS011;22847;42.654;23.370;2023-07-31T10:07:57;5.45;;;3.28;;
36931;SDS011;22847;42.654;23.370;2023-07-31T10:10:23;3.28;;;2.90;;
36931;SDS011;22847;42.654;23.370;2023-07-31T10:12:50;4.00;;;2.72;;
36931;SDS011;22847;42.654;23.370;2023-07-31T10:15:17;8.43;;;2.60;;
36931;SDS011;22847;42.654;23.370;2023-07-31T10:17:43;5.78;;;2.80;;
36931;SDS011;22847;42.654;23.370;2023-07-31T10:20:09;4.45;;;2.70;;
36931;SDS011;22847;42.654;23.370;2023-07-31T10:22:35;3.22;;;2.47;;
36931;SDS011;22847;42.654;23.370;2023-07-31T10:25:01;4.13;;;2.17;;
36931;SDS011;22847;42.654;23.370;2023-07-31T10:27:27;7.18;;;2.58;;
36931;SDS011;22847;42.654;23.370;2023-07-31T10:29:54;3.97;;;2.50;;
36931;SDS011;22847;42.654;23.370;2023-07-31T10:32:21;4.53;;;2.80;;
36931;SDS011;22847;42.654;23.370;2023-07-31T10:34:48;2.63;;;2.40;;
36931;SDS011;22847;42.654;23.370;2023-07-31T10:37:28;4.78;;;2.10;;
36931;SDS011;22847;42.654;23.370;2023-07-31T10:40:02;6.30;;;2.38;;
36931;SDS011;22847;42.654;23.370;2023-07-31T10:42:37;3.20;;;2.63;;
36931;SDS011;22847;42.654;23.370;2023-07-31T10:45:17;5.00;;;2.33;;
36931;SDS011;22847;42.654;23.370;2023-07-31T10:48:17;2.50;;;2.30;;
36931;SDS011;22847;42.654;23.370;2023-07-31T10:53:30;3.80;;;2.15;;
36931;SDS011;22847;42.654;23.370;2023-07-31T10:56:01;3.05;;;2.33;;
36931;SDS011;22847;42.654;23.370;2023-07-31T10:58:31;2.55;;;1.95;;
36931;SDS011;22847;42.654;23.370;2023-07-31T11:00:58;2.65;;;2.08;;
36931;SDS011;22847;42.654;23.370;2023-07-31T11:03:25;4.28;;;2.13;;
36931;SDS011;22847;42.654;23.370;2023-07-31T11:05:52;7.15;;;2.22;;
36931;SDS011;22847;42.654;23.370;2023-07-31T11:08:26;5.90;;;2.15;;
36931;SDS011;22847;42.654;23.370;2023-07-31T11:13:27;3.58;;;2.13;;
36931;SDS011;22847;42.654;23.370;2023-07-31T11:15:56;4.05;;;2.58;;
36931;SDS011;22847;42.654;23.370;2023-07-31T11:18:22;3.35;;;2.38;;
36931;SDS011;22847;42.654;23.370;2023-07-31T11:20:47;3.05;;;2.30;;
36931;SDS011;22847;42.654;23.370;2023-07-31T11:23:15;4.00;;;2.00;;
36931;SDS011;22847;42.654;23.370;2023-07-31T11:25:42;3.75;;;2.13;;
36931;SDS011;22847;42.654;23.370;2023-07-31T11:28:14;3.35;;;2.25;;
36931;SDS011;22847;42.654;23.370;2023-07-31T11:30:41;2.23;;;2.03;;
36931;SDS011;22847;42.654;23.370;2023-07-31T11:33:08;3.88;;;2.10;;
36931;SDS011;22847;42.654;23.370;2023-07-31T11:35:42;4.18;;;2.25;;
36931;SDS011;22847;42.654;23.370;2023-07-31T11:38:12;2.97;;;2.15;;
36931;SDS011;22847;42.654;23.370;2023-07-31T11:40:48;3.83;;;2.15;;
36931;SDS011;22847;42.654;23.370;2023-07-31T11:43:13;3.63;;;2.15;;
36931;SDS011;22847;42.654;23.370;2023-07-31T11:45:42;2.35;;;1.92;;
36931;SDS011;22847;42.654;23.370;2023-07-31T11:48:18;4.65;;;2.00;;
36931;SDS011;22847;42.654;23.370;2023-07-31T11:50:51;4.13;;;2.08;;
36931;SDS011;22847;42.654;23.370;2023-07-31T11:53:24;4.07;;;2.10;;
36931;SDS011;22847;42.654;23.370;2023-07-31T11:55:52;3.25;;;2.17;;
36931;SDS011;22847;42.654;23.370;2023-07-31T11:58:17;4.15;;;2.97;;
36931;SDS011;22847;42.654;23.370;2023-07-31T12:00:45;5.88;;;2.53;;
36931;SDS011;22847;42.654;23.370;2023-07-31T12:03:11;3.28;;;2.58;;
36931;SDS011;22847;42.654;23.370;2023-07-31T12:05:37;2.60;;;2.38;;
36931;SDS011;22847;42.654;23.370;2023-07-31T12:08:08;3.33;;;2.70;;
36931;SDS011;22847;42.654;23.370;2023-07-31T12:10:34;4.43;;;2.47;;
36931;SDS011;22847;42.654;23.370;2023-07-31T12:15:29;2.88;;;2.67;;
36931;SDS011;22847;42.654;23.370;2023-07-31T12:17:56;13.18;;;3.38;;
36931;SDS011;22847;42.654;23.370;2023-07-31T12:20:21;3.03;;;2.58;;
36931;SDS011;22847;42.654;23.370;2023-07-31T12:22:47;3.25;;;2.95;;
36931;SDS011;22847;42.654;23.370;2023-07-31T12:25:15;4.50;;;3.33;;
36931;SDS011;22847;42.654;23.370;2023-07-31T12:27:43;4.05;;;3.17;;
36931;SDS011;22847;42.654;23.370;2023-07-31T12:33:14;7.43;;;4.85;;
36931;SDS011;22847;42.654;23.370;2023-07-31T12:35:41;5.78;;;5.15;;
36931;SDS011;22847;42.654;23.370;2023-07-31T12:38:08;7.00;;;6.10;;
36931;SDS011;22847;42.654;23.370;2023-07-31T12:40:35;5.97;;;5.38;;
36931;SDS011;22847;42.654;23.370;2023-07-31T12:43:02;5.88;;;5.32;;
36931;SDS011;22847;42.654;23.370;2023-07-31T12:45:28;9.70;;;5.47;;
36931;SDS011;22847;42.654;23.370;2023-07-31T12:47:54;5.97;;;5.38;;
36931;SDS011;22847;42.654;23.370;2023-07-31T12:50:20;4.93;;;4.43;;
36931;SDS011;22847;42.654;23.370;2023-07-31T12:52:45;8.05;;;4.85;;
36931;SDS011;22847;42.654;23.370;2023-07-31T12:55:11;5.20;;;4.70;;
36931;SDS011;22847;42.654;23.370;2023-07-31T12:57:36;4.90;;;4.38;;
36931;SDS011;22847;42.654;23.370;2023-07-31T13:00:02;6.72;;;4.63;;
36931;SDS011;22847;42.654;23.370;2023-07-31T13:02:28;5.75;;;4.45;;
36931;SDS011;22847;42.654;23.370;2023-07-31T13:04:54;5.20;;;4.70;;
36931;SDS011;22847;42.654;23.370;2023-07-31T13:07:21;8.43;;;6.60;;
36931;SDS011;22847;42.654;23.370;2023-07-31T13:09:47;8.15;;;5.95;;
36931;SDS011;22847;42.654;23.370;2023-07-31T13:12:12;8.27;;;7.05;;
36931;SDS011;22847;42.654;23.370;2023-07-31T13:14:38;9.25;;;6.55;;
36931;SDS011;22847;42.654;23.370;2023-07-31T13:17:03;8.27;;;7.40;;
36931;SDS011;22847;42.654;23.370;2023-07-31T13:19:29;7.90;;;6.47;;
36931;SDS011;22847;42.654;23.370;2023-07-31T13:21:54;7.30;;;6.00;;
36931;SDS011;22847;42.654;23.370;2023-07-31T13:24:19;9.88;;;6.45;;
36931;SDS011;22847;42.654;23.370;2023-07-31T13:26:45;9.55;;;7.00;;
36931;SDS011;22847;42.654;23.370;2023-07-31T13:29:10;8.48;;;6.60;;
36931;SDS011;22847;42.654;23.370;2023-07-31T13:31:35;14.60;;;5.82;;
36931;SDS011;22847;42.654;23.370;2023-07-31T13:34:01;7.10;;;5.55;;
36931;SDS011;22847;42.654;23.370;2023-07-31T13:36:26;9.40;;;5.25;;
36931;SDS011;22847;42.654;23.370;2023-07-31T13:38:52;9.95;;;4.82;;
36931;SDS011;22847;42.654;23.370;2023-07-31T13:41:17;5.25;;;4.60;;
36931;SDS011;22847;42.654;23.370;2023-07-31T13:43:42;6.30;;;4.50;;
36931;SDS011;22847;42.654;23.370;2023-07-31T13:46:08;9.70;;;5.25;;
36931;SDS011;22847;42.654;23.370;2023-07-31T13:48:35;10.73;;;7.43;;
36931;SDS011;22847;42.654;23.370;2023-07-31T13:51:01;6.85;;;5.45;;
36931;SDS011;22847;42.654;23.370;2023-07-31T13:53:27;12.70;;;5.35;;
36931;SDS011;22847;42.654;23.370;2023-07-31T13:55:52;7.43;;;4.95;;
36931;SDS011;22847;42.654;23.370;2023-07-31T13:58:18;5.65;;;4.60;;
36931;SDS011;22847;42.654;23.370;2023-07-31T14:00:43;4.82;;;4.40;;
36931;SDS011;22847;42.654;23.370;2023-07-31T14:03:08;8.23;;;5.10;;
36931;SDS011;22847;42.654;23.370;2023-07-31T14:05:34;9.82;;;4.50;;
36931;SDS011;22847;42.654;23.370;2023-07-31T14:08:00;5.47;;;4.95;;
36931;SDS011;22847;42.654;23.370;2023-07-31T14:10:25;5.10;;;4.60;;
36931;SDS011;22847;42.654;23.370;2023-07-31T14:12:51;5.53;;;4.32;;
36931;SDS011;22847;42.654;23.370;2023-07-31T14:15:16;9.82;;;4.35;;
36931;SDS011;22847;42.654;23.370;2023-07-31T14:17:42;7.30;;;4.72;;
36931;SDS011;22847;42.654;23.370;2023-07-31T14:20:07;6.40;;;4.10;;
36931;SDS011;22847;42.654;23.370;2023-07-31T14:22:33;9.75;;;4.15;;
36931;SDS011;22847;42.654;23.370;2023-07-31T14:24:59;5.88;;;4.32;;
36931;SDS011;22847;42.654;23.370;2023-07-31T14:27:25;7.68;;;4.25;;
36931;SDS011;22847;42.654;23.370;2023-07-31T14:29:50;7.18;;;4.82;;
36931;SDS011;22847;42.654;23.370;2023-07-31T14:32:16;9.40;;;4.20;;
36931;SDS011;22847;42.654;23.370;2023-07-31T14:34:41;9.13;;;4.47;;
36931;SDS011;22847;42.654;23.370;2023-07-31T14:37:07;6.38;;;4.85;;
36931;SDS011;22847;42.654;23.370;2023-07-31T14:39:32;7.15;;;3.97;;
36931;SDS011;22847;42.654;23.370;2023-07-31T14:41:58;7.30;;;4.55;;
36931;SDS011;22847;42.654;23.370;2023-07-31T14:44:23;7.07;;;5.82;;
36931;SDS011;22847;42.654;23.370;2023-07-31T14:46:48;11.95;;;4.53;;